Observations for NEWCASTLE, United Kingdom (EGNT)

EGNT 140820Z 25007KT 9999 BKN013 16/14 Q1012
EGNT 140750Z 25006KT 9999 BKN011 16/13 Q1012
EGNT 140720Z 23004KT 190V260 9999 SCT012 16/13 Q1011
EGNT 140650Z VRB01KT 9999 SCT019 15/13 Q1011
EGNT 140620Z 26008KT 9999 FEW029 15/13 Q1011
EGNT 140550Z 26008KT CAVOK 14/13 Q1011  
EGNT 140520Z 25006KT CAVOK 14/12 Q1011  
EGNT 140450Z 24003KT CAVOK 13/12 Q1011  
EGNT 140350Z 28005KT 9999 FEW045 13/12 Q1011
EGNT 140250Z 27008KT 9999 FEW021 BKN034 OVC049 15/13 Q1010  
EGNT 140220Z 27007KT 9999 BKN009 OVC045 15/14 Q1010 
EGNT 140150Z 27009KT 9999 -RA FEW007 BKN018 OVC039 15/14 Q1010  
EGNT 140120Z 27006KT 8000 SCT006 BKN041 15/15 Q1010 REDZ
EGNT 140050Z 25004KT 210V280 8000 BKN003 OVC015 16/15 Q1010 
EGNT 140020Z 00000KT 6000 FEW006 BKN039 15/15 Q1010 
EGNT 132350Z 00000KT 9999 FEW017 BKN039 15/15 Q1010 
EGNT 132320Z 00000KT 9999 BKN038 15/15 Q1010
EGNT 132250Z 00000KT 9999 FEW027 BKN038 15/15 Q1010 
EGNT 132220Z 00000KT 9999 R25/0700 MIFG FEW027 SCT038 15/15 Q1010   
EGNT 132150Z 00000KT 9999 MIFG SCT038 15/14 Q1009   
EGNT 132120Z 00000KT 9999 FEW008 SCT036 15/15 Q1009 
EGNT 132050Z 00000KT 9999 FEW006 SCT042 15/15 Q1009 
EGNT 132020Z 07001KT 9999 FEW009 16/15 Q1009
EGNT 131950Z 00000KT 9999 FEW008 BKN036 16/15 Q1009 
EGNT 131920Z VRB02KT 9999 FEW008 SCT033 BKN040 16/15 Q1009  
EGNT 131850Z 07003KT 9999 FEW010 BKN048 17/15 Q1008 
EGNT 131820Z 07004KT 9999 FEW011 BKN046 17/15 Q1008 
EGNT 131750Z 08004KT 9999 SCT010 BKN028 17/15 Q1008 
EGNT 131720Z 07005KT 9999 VCSH SCT010 BKN025 17/15 Q1008
EGNT 131650Z 08004KT 9999 VCSH BKN010 17/15 Q1008   
EGNT 131620Z 09005KT 9999 VCSH BKN009 17/15 Q1008   
EGNT 131550Z 07007KT 9999 VCSH BKN007 18/16 Q1007   
EGNT 131520Z 07005KT 030V100 9999 VCSH BKN006 17/16 Q1007   
EGNT 131450Z 06007KT 9999 BKN006 17/16 Q1007
EGNT 131420Z 07007KT 9999 BKN006 17/16 Q1007
EGNT 131350Z 07006KT 9999 BKN006 OVC015 18/16 Q1007 RERA
EGNT 131250Z 07006KT 6000 -SHRA BKN004 17/16 Q1006  
EGNT 131220Z 07007KT 8000 VCSH BKN004 17/16 Q1006   
EGNT 131150Z 06006KT 5000 -SHRA BKN004 17/16 Q1006  
EGNT 131120Z 03004KT 3500 -SHRA SCT004 BKN006 18/17 Q1006   
EGNT 131050Z 01005KT 330V050 9999 4000E VCSH SCT005 BKN020 18/16 Q1006  
EGNT 131020Z 36004KT 340V040 9999 SCT005 BKN015 19/16 Q1006 
EGNT 130950Z 35005KT 9999 SCT005 BKN007 17/16 Q1006 
EGNT 130920Z 36004KT 9999 SCT005 BKN007 17/16 Q1006 
EGNT 130850Z 02004KT 8000 SCT003 BKN004 17/16 Q1006 
EGNT 130820Z VRB03KT 8000 SCT002 OVC003 16/16 Q1005 
EGNT 130750Z 35003KT 4500 BR SCT002 OVC003 16/16 Q1005 RERA